createdAt,value
2019-03-05T00:02:16.493Z,11.45
2019-03-05T00:04:50.175Z,11.37
2019-03-05T00:07:22.225Z,11.33
2019-03-05T00:09:54.214Z,11.24
2019-03-05T00:12:26.055Z,11.16
2019-03-05T00:14:57.988Z,11.13
2019-03-05T00:17:29.883Z,11.08
2019-03-05T00:20:03.455Z,11.04
2019-03-05T00:22:35.345Z,11.08
2019-03-05T00:25:12.860Z,11.15
2019-03-05T00:28:11.481Z,11.10
2019-03-05T00:30:50.089Z,11.01
2019-03-05T00:33:27.799Z,10.89
2019-03-05T00:36:12.399Z,10.75
2019-03-05T00:39:13.334Z,10.75
2019-03-05T00:42:16.539Z,10.76
2019-03-05T00:45:17.296Z,10.71
2019-03-05T00:48:35.001Z,10.74
2019-03-05T00:51:55.939Z,10.75
2019-03-05T00:55:04.408Z,10.83
2019-03-05T00:58:07.314Z,10.80
2019-03-05T01:00:49.364Z,10.81
2019-03-05T01:04:02.462Z,10.76
2019-03-05T01:06:34.850Z,10.68
2019-03-05T01:09:15.330Z,10.72
2019-03-05T01:11:48.354Z,10.73
2019-03-05T01:14:24.454Z,10.57
2019-03-05T01:16:56.335Z,10.54
2019-03-05T01:19:28.210Z,10.46
2019-03-05T01:22:00.083Z,10.56
2019-03-05T01:24:33.213Z,10.58
2019-03-05T01:27:05.926Z,10.71
2019-03-05T01:29:38.059Z,10.72
2019-03-05T01:32:29.064Z,10.63
2019-03-05T01:35:18.854Z,10.72
2019-03-05T01:37:50.740Z,10.65
2019-03-05T01:40:53.155Z,10.66
2019-03-05T01:43:24.982Z,10.67
2019-03-05T01:45:56.817Z,10.62
2019-03-05T01:48:28.724Z,10.67
2019-03-05T01:51:00.729Z,10.64
2019-03-05T01:53:32.900Z,10.64
2019-03-05T01:56:07.037Z,10.56
2019-03-05T01:58:39.110Z,10.60
2019-03-05T02:01:11.236Z,10.55
2019-03-05T02:03:43.133Z,10.54
2019-03-05T02:06:17.011Z,10.51
2019-03-05T02:08:48.873Z,10.48
2019-03-05T02:11:21.191Z,10.54
2019-03-05T02:13:53.335Z,10.59
2019-03-05T02:16:25.170Z,10.53
2019-03-05T02:19:35.274Z,10.48
2019-03-05T02:22:30.361Z,10.53
2019-03-05T02:25:21.748Z,10.35
2019-03-05T02:28:20.338Z,10.35
2019-03-05T02:31:42.146Z,10.39
2019-03-05T02:34:49.401Z,10.27
2019-03-05T02:38:20.187Z,10.24
2019-03-05T02:41:23.093Z,10.27
2019-03-05T02:44:21.653Z,10.31
2019-03-05T02:47:17.127Z,10.32
2019-03-05T02:50:30.279Z,10.33
2019-03-05T02:53:26.877Z,10.32
2019-03-05T02:56:31.825Z,10.35
2019-03-05T02:59:02.799Z,10.37
2019-03-05T03:01:53.511Z,10.23
2019-03-05T03:04:30.510Z,10.27
2019-03-05T03:07:03.602Z,10.21
2019-03-05T03:10:13.624Z,10.23
2019-03-05T03:12:45.812Z,10.13
2019-03-05T03:15:19.168Z,10.17
2019-03-05T03:17:51.920Z,10.28
2019-03-05T03:20:24.830Z,10.35
2019-03-05T03:22:56.637Z,10.34
2019-03-05T03:25:30.048Z,10.34
2019-03-05T03:28:04.321Z,10.35
2019-03-05T03:30:36.501Z,10.33
2019-03-05T03:33:08.408Z,10.40
2019-03-05T03:35:42.977Z,10.42
2019-03-05T03:38:15.778Z,10.46
2019-03-05T03:40:47.620Z,10.47
2019-03-05T03:43:19.739Z,10.47
2019-03-05T03:45:51.695Z,10.60
2019-03-05T03:48:23.533Z,10.75
2019-03-05T03:50:58.039Z,10.63
2019-03-05T03:53:29.886Z,10.74
2019-03-05T03:56:01.733Z,10.66
2019-03-05T03:58:36.151Z,10.65
2019-03-05T04:01:08.453Z,10.74
2019-03-05T04:03:40.618Z,10.80
2019-03-05T04:06:12.579Z,10.80
2019-03-05T04:08:46.149Z,10.80
2019-03-05T04:11:18.020Z,10.72
2019-03-05T04:13:49.883Z,10.78
2019-03-05T04:16:21.881Z,10.78
2019-03-05T04:18:53.862Z,10.73
2019-03-05T04:21:25.679Z,10.78
2019-03-05T04:23:59.658Z,10.67
2019-03-05T04:26:31.632Z,10.68
2019-03-05T04:29:03.540Z,10.75
2019-03-05T04:31:35.384Z,10.82
2019-03-05T04:34:08.929Z,10.96
2019-03-05T04:36:41.561Z,10.95
2019-03-05T04:39:15.757Z,10.97
2019-03-05T04:41:47.668Z,10.93
2019-03-05T04:44:27.772Z,10.94
2019-03-05T04:46:59.597Z,10.95
2019-03-05T04:49:38.210Z,10.83
2019-03-05T04:52:13.419Z,10.79
2019-03-05T04:54:45.225Z,10.81
2019-03-05T04:57:17.152Z,10.73
2019-03-05T04:59:48.956Z,10.76
2019-03-05T05:02:22.426Z,10.72
2019-03-05T05:04:54.553Z,10.76
2019-03-05T05:07:26.732Z,10.78
2019-03-05T05:09:58.761Z,10.75
2019-03-05T05:12:30.624Z,10.80
2019-03-05T05:15:02.538Z,10.85
2019-03-05T05:17:36.688Z,10.76
2019-03-05T05:20:08.606Z,10.85
2019-03-05T05:22:40.425Z,10.82
2019-03-05T05:25:12.286Z,10.93
2019-03-05T05:27:46.316Z,10.94
2019-03-05T05:30:38.189Z,10.97
2019-03-05T05:33:10.078Z,10.81
2019-03-05T05:35:44.871Z,10.77
2019-03-05T05:38:16.910Z,10.82
2019-03-05T05:40:48.734Z,10.74
2019-03-05T05:43:28.528Z,10.70
2019-03-05T05:46:00.385Z,10.66
2019-03-05T05:48:32.207Z,10.47
2019-03-05T05:51:04.056Z,10.36
2019-03-05T05:53:36.263Z,10.26
2019-03-05T05:56:08.057Z,10.16
2019-03-05T05:58:41.518Z,10.16
2019-03-05T06:01:13.927Z,10.15
2019-03-05T06:03:45.816Z,10.26
2019-03-05T06:06:17.657Z,10.21
2019-03-05T06:08:50.007Z,10.20
2019-03-05T06:11:21.869Z,10.26
2019-03-05T06:13:53.695Z,10.28
2019-03-05T06:16:25.527Z,10.28
2019-03-05T06:18:57.388Z,10.37
2019-03-05T06:21:29.249Z,10.44
2019-03-05T06:24:01.073Z,10.60
2019-03-05T06:26:33.943Z,10.61
2019-03-05T06:29:05.904Z,10.60
2019-03-05T06:31:38.168Z,10.62
2019-03-05T06:34:10.327Z,10.58
2019-03-05T06:36:56.565Z,10.65
2019-03-05T06:39:28.747Z,10.66
2019-03-05T06:42:01.363Z,10.66
2019-03-05T06:44:34.683Z,10.57
2019-03-05T06:47:06.537Z,10.62
2019-03-05T06:49:38.343Z,10.68
2019-03-05T06:52:11.800Z,10.66
2019-03-05T06:54:47.556Z,10.82
2019-03-05T06:57:24.528Z,10.80
2019-03-05T06:59:56.381Z,10.84
2019-03-05T07:02:28.213Z,10.91
2019-03-05T07:05:00.323Z,10.97
2019-03-05T07:07:33.094Z,10.95
2019-03-05T07:10:28.526Z,10.96
2019-03-05T07:13:12.501Z,10.86
2019-03-05T07:16:13.349Z,10.84
2019-03-05T07:19:08.038Z,10.99
2019-03-05T07:22:08.573Z,10.93
2019-03-05T07:24:39.607Z,11.04
2019-03-05T07:27:14.389Z,11.02
2019-03-05T07:29:46.205Z,11.15
2019-03-05T07:32:19.112Z,11.21
2019-03-05T07:34:52.682Z,11.42
2019-03-05T07:37:27.026Z,11.60
2019-03-05T07:39:58.818Z,11.62
2019-03-05T07:42:30.668Z,11.80
2019-03-05T07:45:02.535Z,11.93
2019-03-05T07:47:35.658Z,12.05
2019-03-05T07:50:07.781Z,12.20
2019-03-05T07:52:39.593Z,12.35
2019-03-05T07:55:14.307Z,12.46
2019-03-05T07:57:49.549Z,12.76
2019-03-05T08:00:22.422Z,12.88
2019-03-05T08:02:56.130Z,12.81
2019-03-05T08:05:27.943Z,12.79
2019-03-05T08:08:36.084Z,12.94
2019-03-05T08:11:07.879Z,13.18
2019-03-05T08:14:31.340Z,13.54
2019-03-05T08:17:05.893Z,13.56
2019-03-05T08:19:39.361Z,13.64
2019-03-05T08:22:11.219Z,14.26
2019-03-05T08:24:43.132Z,14.74
2019-03-05T08:27:14.954Z,14.53
2019-03-05T08:29:48.589Z,14.69
2019-03-05T08:32:21.856Z,15.02
2019-03-05T08:34:54.179Z,15.17
2019-03-05T08:37:26.090Z,15.60
2019-03-05T08:39:58.269Z,16.12
2019-03-05T08:42:31.388Z,17.84
2019-03-05T08:45:04.401Z,18.27
2019-03-05T08:47:36.329Z,21.08
2019-03-05T08:50:11.605Z,21.89
2019-03-05T08:52:45.137Z,22.50
2019-03-05T08:55:17.147Z,21.98
2019-03-05T08:57:49.075Z,23.47
2019-03-05T09:00:21.187Z,26.76
2019-03-05T09:02:55.789Z,27.55
2019-03-05T09:05:27.612Z,29.97
2019-03-05T09:07:59.503Z,29.19
2019-03-05T09:10:31.719Z,26.58
2019-03-05T09:13:04.816Z,25.19
2019-03-05T09:15:37.035Z,25.95
2019-03-05T09:18:11.379Z,25.85
2019-03-05T09:20:43.486Z,24.95
2019-03-05T09:23:15.338Z,23.23
2019-03-05T09:25:47.533Z,23.95
2019-03-05T09:28:19.766Z,22.60
2019-03-05T09:30:51.566Z,22.91
2019-03-05T09:33:25.447Z,23.15
2019-03-05T09:35:57.267Z,22.18
2019-03-05T09:38:30.105Z,21.16
2019-03-05T09:41:02.382Z,20.11
2019-03-05T09:43:37.022Z,21.24
2019-03-05T09:46:08.807Z,22.34
2019-03-05T09:48:41.134Z,22.79
2019-03-05T09:51:13.003Z,22.14
2019-03-05T09:53:44.860Z,21.13
2019-03-05T09:56:16.737Z,21.37
2019-03-05T09:58:51.736Z,21.34
2019-03-05T10:01:23.984Z,21.84
2019-03-05T10:03:57.415Z,22.15
2019-03-05T10:06:29.600Z,22.69
2019-03-05T10:09:01.458Z,21.61
2019-03-05T10:11:34.821Z,20.32
2019-03-05T10:14:07.830Z,19.29
2019-03-05T10:16:39.676Z,18.81
2019-03-05T10:19:11.936Z,18.65
2019-03-05T10:21:46.510Z,18.44
2019-03-05T10:24:18.329Z,18.13
2019-03-05T10:26:52.387Z,18.30
2019-03-05T10:29:24.289Z,17.96
2019-03-05T10:31:57.447Z,17.75
2019-03-05T10:34:29.239Z,17.21
2019-03-05T10:37:12.368Z,17.25
2019-03-05T10:39:35.869Z,17.19
2019-03-05T10:42:07.811Z,17.20
2019-03-05T10:44:40.108Z,17.48
2019-03-05T10:47:12.201Z,18.01
2019-03-05T10:49:44.043Z,18.02
2019-03-05T10:52:16.764Z,18.82
2019-03-05T10:54:48.859Z,20.14
2019-03-05T10:57:22.693Z,20.26
2019-03-05T10:59:55.924Z,19.63
2019-03-05T11:02:29.400Z,19.12
2019-03-05T11:05:05.063Z,18.23
2019-03-05T11:07:37.126Z,18.04
2019-03-05T11:10:10.453Z,17.68
2019-03-05T11:12:42.694Z,17.67
2019-03-05T11:15:20.788Z,17.35
2019-03-05T11:17:54.195Z,17.06
2019-03-05T11:20:26.404Z,17.06
2019-03-05T11:22:58.259Z,16.87
2019-03-05T11:25:31.358Z,16.81
2019-03-05T11:28:03.692Z,16.94
2019-03-05T11:30:36.635Z,16.59
2019-03-05T11:33:08.833Z,16.58
2019-03-05T11:35:40.694Z,16.09
2019-03-05T11:38:13.621Z,16.22
2019-03-05T11:40:47.710Z,16.08
2019-03-05T11:43:21.227Z,15.78
2019-03-05T11:45:53.092Z,15.62
2019-03-05T11:48:25.001Z,15.75
2019-03-05T11:50:56.822Z,15.73
2019-03-05T11:53:28.652Z,15.76
2019-03-05T11:56:00.456Z,15.65
2019-03-05T11:58:35.087Z,15.85
2019-03-05T12:01:27.566Z,15.76
2019-03-05T12:03:59.472Z,15.89
2019-03-05T12:06:31.436Z,15.81
2019-03-05T12:09:05.911Z,15.73
2019-03-05T12:11:39.016Z,15.61
2019-03-05T12:14:10.860Z,15.50
2019-03-05T12:16:44.489Z,15.41
2019-03-05T12:19:16.411Z,15.44
2019-03-05T12:21:48.296Z,15.40
2019-03-05T12:24:24.215Z,15.50
2019-03-05T12:26:54.563Z,15.47
2019-03-05T12:29:28.511Z,15.35
2019-03-05T12:32:02.701Z,15.39
2019-03-05T12:34:45.883Z,15.48
2019-03-05T12:37:21.214Z,15.67
2019-03-05T12:39:55.209Z,15.73
2019-03-05T12:42:29.581Z,15.83
2019-03-05T12:45:09.316Z,15.94
2019-03-05T12:47:42.865Z,16.06
2019-03-05T12:50:22.245Z,16.01
2019-03-05T12:52:55.836Z,16.10
2019-03-05T12:55:29.985Z,16.27
2019-03-05T12:58:06.586Z,16.24
2019-03-05T13:00:40.076Z,16.27
2019-03-05T13:03:14.715Z,16.35
2019-03-05T13:05:52.388Z,16.45
2019-03-05T13:08:28.785Z,16.24
2019-03-05T13:11:00.916Z,16.45
2019-03-05T13:13:37.336Z,16.63
2019-03-05T13:16:09.136Z,16.73
2019-03-05T13:18:47.525Z,16.76
2019-03-05T13:21:21.706Z,16.69
2019-03-05T13:23:53.821Z,16.68
2019-03-05T13:26:25.937Z,16.61
2019-03-05T13:28:57.682Z,16.55
2019-03-05T13:31:29.551Z,16.61
2019-03-05T13:34:02.498Z,16.72
2019-03-05T13:36:34.733Z,16.65
2019-03-05T13:39:07.953Z,16.77
2019-03-05T13:41:41.363Z,16.70
2019-03-05T13:44:35.961Z,16.83
2019-03-05T13:47:09.393Z,17.05
2019-03-05T13:50:31.072Z,17.27
2019-03-05T13:53:30.375Z,17.30
2019-03-05T13:56:53.436Z,17.26
2019-03-05T13:59:46.744Z,17.16
2019-03-05T14:02:25.254Z,17.20
2019-03-05T14:05:21.148Z,17.14
2019-03-05T14:08:36.661Z,17.04
2019-03-05T14:11:09.670Z,17.05
2019-03-05T14:13:42.810Z,17.08
2019-03-05T14:16:17.408Z,17.15
2019-03-05T14:18:49.273Z,17.06
2019-03-05T14:21:21.534Z,16.88
2019-03-05T14:23:53.411Z,16.60
2019-03-05T14:26:27.169Z,16.62
2019-03-05T14:28:59.109Z,16.39
2019-03-05T14:31:31.331Z,16.42
2019-03-05T14:34:03.709Z,16.27
2019-03-05T14:36:38.628Z,16.10
2019-03-05T14:39:34.138Z,15.92
2019-03-05T14:42:08.386Z,15.94
2019-03-05T14:44:41.952Z,15.88
2019-03-05T14:47:13.919Z,15.88
2019-03-05T14:49:47.338Z,15.86
2019-03-05T14:52:20.157Z,15.93
2019-03-05T14:54:52.999Z,15.86
2019-03-05T14:57:24.781Z,15.74
2019-03-05T14:59:56.581Z,15.67
2019-03-05T15:02:31.416Z,15.51
2019-03-05T15:05:05.775Z,15.32
2019-03-05T15:07:38.073Z,15.29
2019-03-05T15:10:10.264Z,15.30
2019-03-05T15:12:42.314Z,15.48
2019-03-05T15:15:21.316Z,15.57
2019-03-05T15:17:53.468Z,15.80
2019-03-05T15:20:26.881Z,15.76
2019-03-05T15:22:59.109Z,15.66
2019-03-05T15:25:31.063Z,15.73
2019-03-05T15:28:05.157Z,15.90
2019-03-05T15:30:36.993Z,15.96
2019-03-05T15:33:08.998Z,16.14
2019-03-05T15:35:41.197Z,16.20
2019-03-05T15:38:13.647Z,16.22
2019-03-05T15:40:45.480Z,16.25
2019-03-05T15:43:19.392Z,16.30
2019-03-05T15:45:51.246Z,16.25
2019-03-05T15:48:23.390Z,16.19
2019-03-05T15:50:56.867Z,16.18
2019-03-05T15:53:30.610Z,16.16
2019-03-05T15:56:02.853Z,16.20
2019-03-05T15:58:35.158Z,16.21
2019-03-05T16:01:09.729Z,16.13
2019-03-05T16:03:40.801Z,16.17
2019-03-05T16:06:14.428Z,16.17
2019-03-05T16:08:47.429Z,16.00
2019-03-05T16:11:19.197Z,15.81
2019-03-05T16:13:52.408Z,15.63
2019-03-05T16:16:26.451Z,15.49
2019-03-05T16:19:03.942Z,15.42
2019-03-05T16:21:41.211Z,15.45
2019-03-05T16:24:10.612Z,15.44
2019-03-05T16:26:43.274Z,15.44
2019-03-05T16:29:16.325Z,15.44
2019-03-05T16:31:56.115Z,15.37
2019-03-05T16:34:37.066Z,15.36
2019-03-05T16:37:43.797Z,15.32
2019-03-05T16:40:36.378Z,15.27
2019-03-05T16:43:22.470Z,15.15
2019-03-05T16:46:02.791Z,15.09
2019-03-05T16:48:53.651Z,15.13
2019-03-05T16:51:44.556Z,15.23
2019-03-05T16:54:35.327Z,15.44
2019-03-05T16:57:23.177Z,15.50
2019-03-05T17:00:20.125Z,15.53
2019-03-05T17:03:05.883Z,15.53
2019-03-05T17:05:56.693Z,15.53
2019-03-05T17:08:53.729Z,15.44
2019-03-05T17:11:34.503Z,15.47
2019-03-05T17:14:06.394Z,15.57
2019-03-05T17:16:38.288Z,15.59
2019-03-05T17:19:13.208Z,15.67
2019-03-05T17:21:45.077Z,15.71
2019-03-05T17:24:17.112Z,15.65
2019-03-05T17:26:48.940Z,15.68
2019-03-05T17:29:20.840Z,15.71
2019-03-05T17:31:59.613Z,15.70
2019-03-05T17:34:31.574Z,15.73
2019-03-05T17:37:03.511Z,15.85
2019-03-05T17:39:35.319Z,15.87
2019-03-05T17:42:07.158Z,15.92
2019-03-05T17:44:39.001Z,15.92
2019-03-05T17:47:10.816Z,15.93
2019-03-05T17:49:44.393Z,15.90
2019-03-05T17:52:16.332Z,15.95
2019-03-05T17:54:49.363Z,15.92
2019-03-05T17:57:22.904Z,15.93
2019-03-05T17:59:54.727Z,15.84
2019-03-05T18:02:26.859Z,15.91
2019-03-05T18:05:00.319Z,15.91
2019-03-05T18:07:34.613Z,15.80
2019-03-05T18:10:07.301Z,15.75
2019-03-05T18:12:39.951Z,15.78
2019-03-05T18:15:14.016Z,15.74
2019-03-05T18:17:45.995Z,15.74
2019-03-05T18:20:18.393Z,15.74
2019-03-05T18:22:51.097Z,15.76
2019-03-05T18:25:24.316Z,15.74
2019-03-05T18:27:57.803Z,15.81
2019-03-05T18:30:29.852Z,15.89
2019-03-05T18:33:02.052Z,15.88
2019-03-05T18:35:34.582Z,15.90
2019-03-05T18:38:06.611Z,15.90
2019-03-05T18:40:39.044Z,15.93
2019-03-05T18:43:11.150Z,15.92
2019-03-05T18:45:43.126Z,15.93
2019-03-05T18:48:14.988Z,15.91
2019-03-05T18:50:47.144Z,15.91
2019-03-05T18:53:19.244Z,15.90
2019-03-05T18:55:51.168Z,15.84
2019-03-05T18:58:25.040Z,15.86
2019-03-05T19:00:56.924Z,15.97
2019-03-05T19:03:28.986Z,15.98
2019-03-05T19:06:00.877Z,16.01
2019-03-05T19:08:32.762Z,15.94
2019-03-05T19:11:05.309Z,15.90
2019-03-05T19:13:37.339Z,15.97
2019-03-05T19:16:09.425Z,16.02
2019-03-05T19:18:43.047Z,16.00
2019-03-05T19:21:15.329Z,15.94
2019-03-05T19:23:47.226Z,15.95
2019-03-05T19:26:19.289Z,15.93
2019-03-05T19:28:51.137Z,15.97
2019-03-05T19:31:23.157Z,15.92
2019-03-05T19:33:56.874Z,15.97
2019-03-05T19:36:28.990Z,15.92
2019-03-05T19:39:00.831Z,15.97
2019-03-05T19:41:37.642Z,16.02
2019-03-05T19:44:12.619Z,16.11
2019-03-05T19:46:45.783Z,16.05
2019-03-05T19:49:19.994Z,16.07
2019-03-05T19:51:52.058Z,16.09
2019-03-05T19:54:23.993Z,16.15
2019-03-05T19:56:58.607Z,16.15
2019-03-05T19:59:30.964Z,16.06
2019-03-05T20:02:03.437Z,15.94
2019-03-05T20:04:35.461Z,16.03
2019-03-05T20:07:07.384Z,15.99
2019-03-05T20:09:39.454Z,16.06
2019-03-05T20:12:13.811Z,16.06
2019-03-05T20:14:45.836Z,16.04
2019-03-05T20:17:20.947Z,15.98
2019-03-05T20:19:54.315Z,16.04
2019-03-05T20:22:26.296Z,16.11
2019-03-05T20:24:58.260Z,15.93
2019-03-05T20:27:31.803Z,15.75
2019-03-05T20:30:03.875Z,15.50
2019-03-05T20:32:36.806Z,15.40
2019-03-05T20:35:10.535Z,15.26
2019-03-05T20:37:46.814Z,15.12
2019-03-05T20:40:19.601Z,15.03
2019-03-05T20:42:54.459Z,14.93
2019-03-05T20:45:29.822Z,14.97
2019-03-05T20:48:01.854Z,14.93
2019-03-05T20:50:34.256Z,14.96
2019-03-05T20:53:06.403Z,14.94
2019-03-05T20:55:38.286Z,14.79
2019-03-05T20:58:10.412Z,14.75
2019-03-05T21:00:42.838Z,14.72
2019-03-05T21:03:15.038Z,14.63
2019-03-05T21:05:47.173Z,14.59
2019-03-05T21:08:19.117Z,14.54
2019-03-05T21:10:51.800Z,14.44
2019-03-05T21:13:24.160Z,14.47
2019-03-05T21:15:56.171Z,14.38
2019-03-05T21:18:28.257Z,14.36
2019-03-05T21:21:00.360Z,14.38
2019-03-05T21:23:32.483Z,14.45
2019-03-05T21:26:04.533Z,14.33
2019-03-05T21:28:39.730Z,14.27
2019-03-05T21:31:12.468Z,14.30
2019-03-05T21:33:44.401Z,14.34
2019-03-05T21:36:16.770Z,14.28
2019-03-05T21:38:48.701Z,14.20
2019-03-05T21:41:23.334Z,14.24
2019-03-05T21:43:55.748Z,14.26
2019-03-05T21:46:27.710Z,14.23
2019-03-05T21:48:59.982Z,14.20
2019-03-05T21:51:34.662Z,14.09
2019-03-05T21:54:07.195Z,14.10
2019-03-05T21:56:40.235Z,14.18
2019-03-05T21:59:12.141Z,14.14
2019-03-05T22:01:44.075Z,14.25
2019-03-05T22:04:16.094Z,14.18
2019-03-05T22:06:50.624Z,14.08
2019-03-05T22:09:25.591Z,14.06
2019-03-05T22:12:00.574Z,13.95
2019-03-05T22:14:33.804Z,13.92
2019-03-05T22:17:08.335Z,13.99
2019-03-05T22:19:42.334Z,13.88
2019-03-05T22:22:17.510Z,13.77
2019-03-05T22:24:49.299Z,13.70
2019-03-05T22:27:21.223Z,13.64
2019-03-05T22:29:53.119Z,13.58
2019-03-05T22:32:25.115Z,13.51
2019-03-05T22:34:57.943Z,13.50
2019-03-05T22:37:29.875Z,13.50
2019-03-05T22:40:01.832Z,13.55
2019-03-05T22:42:34.956Z,13.55
2019-03-05T22:45:08.026Z,13.55
2019-03-05T22:47:40.090Z,13.36
2019-03-05T22:50:12.101Z,13.31
2019-03-05T22:52:44.051Z,13.33
2019-03-05T22:55:15.895Z,13.37
2019-03-05T22:57:47.917Z,13.38
2019-03-05T23:01:01.191Z,13.32
2019-03-05T23:03:36.346Z,13.28
2019-03-05T23:06:10.152Z,13.38
2019-03-05T23:08:50.047Z,13.31
2019-03-05T23:11:22.552Z,13.29
2019-03-05T23:13:58.637Z,13.21
2019-03-05T23:16:30.462Z,13.09
2019-03-05T23:19:05.058Z,12.99
2019-03-05T23:21:38.023Z,12.99
2019-03-05T23:24:10.136Z,12.98
2019-03-05T23:26:41.917Z,12.96
2019-03-05T23:29:20.673Z,13.01
2019-03-05T23:31:55.096Z,13.13
2019-03-05T23:34:27.419Z,13.35
2019-03-05T23:36:59.756Z,13.43
2019-03-05T23:39:33.918Z,13.51
2019-03-05T23:42:05.881Z,13.60
2019-03-05T23:44:40.242Z,13.62
2019-03-05T23:47:12.906Z,13.63
2019-03-05T23:49:44.806Z,13.63
2019-03-05T23:52:16.640Z,13.64
2019-03-05T23:54:48.435Z,13.78
2019-03-05T23:57:20.272Z,13.73
2019-03-05T23:59:52.278Z,13.77
